Time;durP1;ratioP1;P1;durP2;ratioP2;P2;SDS_P1;SDS_P2;PMS_P1;PMS_P2;Temp;Humidity;BMP_temperature;BMP_pressure;BME280_temperature;BME280_humidity;BME280_pressure;Samples;Min_cycle;Max_cycle;Signal;HPM_P1;HPM_P2
2022/12/08 00:10:08;;;;;;;;;;;;;;;;;;10504590;28;19924;-72
2022/12/08 00:15:30;;;;;;;;;;;;;;;;;;10504540;28;19925;-72
2022/12/08 00:20:32;;;;;;;;;;;;;;;;;;10482164;22;19932;-61
2022/12/08 00:25:34;;;;;;;;;;;;;;;;;;10462820;28;19936;-61
2022/12/08 00:30:36;;;;;;;;;;;;;;;;;;10462032;28;19925;-61
2022/12/08 00:35:38;;;;;;;;;;;;;;;;;;10460181;28;20441;-61
2022/12/08 00:40:44;;;;;;;;;;;;;;;;;;10462783;28;19936;-61
2022/12/08 00:45:46;;;;;;;;;;;;;;;;;;10460575;28;19924;-61
2022/12/08 00:50:48;;;;;;;;;;;;;;;;;;10460049;28;19994;-61
2022/12/08 00:55:50;;;;;;;;;;;;;;;;;;10461547;28;19931;-61
2022/12/08 01:00:52;;;;;;;;;;;;;;;;;;10460769;28;19924;-61
2022/12/08 01:05:54;;;;;;;;;;;;;;;;;;10459894;28;19964;-62
2022/12/08 01:10:56;;;;;;;;;;;;;;;;;;10459547;28;19925;-62
2022/12/08 01:15:58;;;;;;;;;;;;;;;;;;10460833;28;19924;-61
2022/12/08 01:21:00;;;;;;;;;;;;;;;;;;10459809;28;19925;-62
2022/12/08 01:26:02;;;;;;;;;;;;;;;;;;10459700;28;19929;-62
2022/12/08 01:31:04;;;;;;;;;;;;;;;;;;10459512;28;19929;-61
2022/12/08 01:36:06;;;;;;;;;;;;;;;;;;10458989;28;19925;-62
2022/12/08 01:41:08;;;;;;;;;;;;;;;;;;10458153;28;19925;-61
2022/12/08 01:46:10;;;;;;;;;;;;;;;;;;10459617;28;19925;-61
2022/12/08 01:51:12;;;;;;;;;;;;;;;;;;10457894;28;19946;-61
2022/12/08 01:56:15;;;;;;;;;;;;;;;;;;10457572;28;20280;-62
2022/12/08 02:01:17;;;;;;;;;;;;;;;;;;10459006;28;19974;-62
2022/12/08 02:06:19;;;;;;;;;;;;;;;;;;10457707;28;20354;-61
2022/12/08 02:11:21;;;;;;;;;;;;;;;;;;10457081;28;20379;-61
2022/12/08 02:16:23;;;;;;;;;;;;;;;;;;10457299;28;20299;-61
2022/12/08 02:21:25;;;;;;;;;;;;;;;;;;10457582;28;19924;-61
2022/12/08 02:26:27;;;;;;;;;;;;;;;;;;10458214;28;19925;-61
2022/12/08 02:31:29;;;;;;;;;;;;;;;;;;10456615;28;20375;-61
2022/12/08 02:36:31;;;;;;;;;;;;;;;;;;10456726;28;19925;-61
2022/12/08 02:41:33;;;;;;;;;;;;;;;;;;10456312;28;19924;-61
2022/12/08 02:46:36;;;;;;;;;;;;;;;;;;10457653;28;19947;-61
2022/12/08 02:51:38;;;;;;;;;;;;;;;;;;10456382;28;20372;-61
2022/12/08 02:56:40;;;;;;;;;;;;;;;;;;10455989;28;19936;-61
2022/12/08 03:01:42;;;;;;;;;;;;;;;;;;10463128;28;19951;-61
2022/12/08 03:06:44;;;;;;;;;;;;;;;;;;10448179;28;19935;-61
2022/12/08 03:11:46;;;;;;;;;;;;;;;;;;10463580;28;19925;-61
2022/12/08 03:16:48;;;;;;;;;;;;;;;;;;10464704;28;20265;-61
2022/12/08 03:21:51;;;;;;;;;;;;;;;;;;10464551;28;19976;-61
2022/12/08 03:26:53;;;;;;;;;;;;;;;;;;10463834;28;19924;-61
2022/12/08 03:31:55;;;;;;;;;;;;;;;;;;10464770;28;19928;-61
2022/12/08 03:36:57;;;;;;;;;;;;;;;;;;10463146;28;20319;-61
2022/12/08 03:41:59;;;;;;;;;;;;;;;;;;10464473;28;19925;-61
2022/12/08 03:47:01;;;;;;;;;;;;;;;;;;10463714;28;19951;-61
2022/12/08 03:52:03;;;;;;;;;;;;;;;;;;10463016;28;19975;-61
2022/12/08 03:57:05;;;;;;;;;;;;;;;;;;10463938;28;19929;-61
2022/12/08 04:02:07;;;;;;;;;;;;;;;;;;10463077;28;20314;-61
2022/12/08 04:07:09;;;;;;;;;;;;;;;;;;10462072;28;20438;-61
2022/12/08 04:12:11;;;;;;;;;;;;;;;;;;10460917;28;19928;-61
2022/12/08 04:17:13;;;;;;;;;;;;;;;;;;10463186;28;19925;-62
2022/12/08 04:22:15;;;;;;;;;;;;;;;;;;10461461;28;19929;-61
2022/12/08 04:27:17;;;;;;;;;;;;;;;;;;10462165;28;20276;-61
2022/12/08 04:32:19;;;;;;;;;;;;;;;;;;10443840;28;19925;-61
2022/12/08 04:37:21;;;;;;;;;;;;;;;;;;10461828;28;19932;-61
2022/12/08 04:42:23;;;;;;;;;;;;;;;;;;10462119;28;19951;-61
2022/12/08 04:47:25;;;;;;;;;;;;;;;;;;10461966;28;19928;-61
2022/12/08 04:52:27;;;;;;;;;;;;;;;;;;10460745;28;19925;-61
2022/12/08 04:57:29;;;;;;;;;;;;;;;;;;10459921;28;20391;-61
2022/12/08 05:02:31;;;;;;;;;;;;;;;;;;10460036;28;19925;-61
2022/12/08 05:07:34;;;;;;;;;;;;;;;;;;10461184;28;19925;-61
2022/12/08 05:12:36;;;;;;;;;;;;;;;;;;10458517;28;20331;-61
2022/12/08 05:17:38;;;;;;;;;;;;;;;;;;10460426;28;19932;-59
2022/12/08 05:22:40;;;;;;;;;;;;;;;;;;10460568;28;19975;-58
2022/12/08 05:27:42;;;;;;;;;;;;;;;;;;10459758;28;19979;-59
2022/12/08 05:32:44;;;;;;;;;;;;;;;;;;10458566;28;19925;-59
2022/12/08 05:37:46;;;;;;;;;;;;;;;;;;10459315;28;20299;-59
2022/12/08 05:42:48;;;;;;;;;;;;;;;;;;10441481;28;20405;-58
2022/12/08 05:47:50;;;;;;;;;;;;;;;;;;10458118;28;20101;-61
2022/12/08 05:52:52;;;;;;;;;;;;;;;;;;10457981;28;19925;-61
2022/12/08 05:57:54;;;;;;;;;;;;;;;;;;10458609;28;20342;-61
2022/12/08 06:02:56;;;;;;;;;;;;;;;;;;10459038;28;19929;-61
2022/12/08 06:07:59;;;;;;;;;;;;;;;;;;10458306;28;19924;-61
2022/12/08 06:13:01;;;;;;;;;;;;;;;;;;10456518;28;20383;-61
2022/12/08 06:18:03;;;;;;;;;;;;;;;;;;10458192;28;19925;-61
2022/12/08 06:23:05;;;;;;;;;;;;;;;;;;10456917;28;20382;-61
2022/12/08 06:28:07;;;;;;;;;;;;;;;;;;10458129;28;19928;-61
2022/12/08 06:33:09;;;;;;;;;;;;;;;;;;10455104;28;20284;-61
2022/12/08 06:38:11;;;;;;;;;;;;;;;;;;10457710;28;19975;-61
2022/12/08 06:43:13;;;;;;;;;;;;;;;;;;10457126;28;19924;-61
2022/12/08 06:48:15;;;;;;;;;;;;;;;;;;10455905;28;19994;-61
2022/12/08 06:53:17;;;;;;;;;;;;;;;;;;10456036;28;20399;-61
2022/12/08 06:58:19;;;;;;;;;;;;;;;;;;10457367;28;19925;-61
2022/12/08 07:03:21;;;;;;;;;;;;;;;;;;10455691;28;20457;-61
2022/12/08 07:08:23;;;;;;;;;;;;;;;;;;10457211;28;19929;-60
2022/12/08 07:13:25;;;;;;;;;;;;;;;;;;10456238;28;19925;-61
2022/12/08 07:18:27;;;;;;;;;;;;;;;;;;10456153;28;20354;-61
2022/12/08 07:23:29;;;;;;;;;;;;;;;;;;10456241;28;20368;-61
2022/12/08 07:28:31;;;;;;;;;;;;;;;;;;10455229;28;19971;-61
2022/12/08 07:33:34;;;;;;;;;;;;;;;;;;10455829;28;19925;-61
2022/12/08 07:38:37;;;;;;;;;;;;;;;;;;10456618;28;19925;-61
2022/12/08 07:43:39;;;;;;;;;;;;;;;;;;10454900;28;20364;-61
2022/12/08 07:48:41;;;;;;;;;;;;;;;;;;10459909;28;20314;-61
2022/12/08 07:53:44;;;;;;;;;;;;;;;;;;10463281;28;19928;-61
2022/12/08 07:58:50;;;;;;;;;;;;;;;;;;10463905;28;19925;-61
2022/12/08 08:03:53;;;;;;;;;;;;;;;;;;10463250;28;19971;-61
2022/12/08 08:08:55;;;;;;;;;;;;;;;;;;10463731;28;19924;-61
2022/12/08 08:13:57;;;;;;;;;;;;;;;;;;10462266;28;20391;-61
2022/12/08 08:18:59;;;;;;;;;;;;;;;;;;10462279;28;20279;-61
2022/12/08 08:24:01;;;;;;;;;;;;;;;;;;10462259;28;19924;-61
2022/12/08 08:29:03;;;;;;;;;;;;;;;;;;10461928;28;20268;-61
2022/12/08 08:34:05;;;;;;;;;;;;;;;;;;10456113;28;19979;-61
2022/12/08 08:39:07;;;;;;;;;;;;;;;;;;10461384;28;20383;-61
2022/12/08 08:44:09;;;;;;;;;;;;;;;;;;10460908;28;19979;-61
2022/12/08 08:49:11;;;;;;;;;;;;;;;;;;10461938;28;19924;-61
2022/12/08 08:54:14;;;;;;;;;;;;;;;;;;10461029;28;20323;-61
2022/12/08 08:59:16;;;;;;;;;;;;;;;;;;10460712;28;20261;-61
2022/12/08 09:04:18;;;;;;;;;;;;;;;;;;10461456;28;19928;-61
2022/12/08 09:09:20;;;;;;;;;;;;;;;;;;10457095;28;19935;-61
2022/12/08 09:14:22;;;;;;;;;;;;;;;;;;10460939;28;19925;-61
2022/12/08 09:19:24;;;;;;;;;;;;;;;;;;10460531;28;19931;-61
2022/12/08 09:24:26;;;;;;;;;;;;;;;;;;10460655;28;19929;-61
2022/12/08 09:29:29;;;;;;;;;;;;;;;;;;10460415;28;19925;-61
2022/12/08 09:34:36;;;;;;;;;;;;;;;;;;10459586;28;19925;-61
2022/12/08 09:39:38;;;;;;;;;;;;;;;;;;10459367;28;19925;-61
2022/12/08 09:44:41;;;;;;;;;;;;;;;;;;10459831;28;19971;-61
2022/12/08 09:49:43;;;;;;;;;;;;;;;;;;10459594;28;19932;-61
2022/12/08 09:54:45;;;;;;;;;;;;;;;;;;10458729;28;19951;-61
2022/12/08 09:59:47;;;;;;;;;;;;;;;;;;10458724;28;19975;-61
2022/12/08 10:04:50;;;;;;;;;;;;;;;;;;10458359;28;20437;-61
2022/12/08 10:09:52;;;;;;;;;;;;;;;;;;10457500;28;20039;-61
2022/12/08 10:14:54;;;;;;;;;;;;;;;;;;10458559;28;19924;-61
2022/12/08 10:19:56;;;;;;;;;;;;;;;;;;10458186;28;19929;-61
2022/12/08 10:24:58;;;;;;;;;;;;;;;;;;10457640;28;20322;-61
2022/12/08 10:30:00;;;;;;;;;;;;;;;;;;10457488;28;20372;-61
2022/12/08 10:35:02;;;;;;;;;;;;;;;;;;10457948;28;19924;-61
2022/12/08 10:40:04;;;;;;;;;;;;;;;;;;10457203;28;19925;-61
2022/12/08 10:45:06;;;;;;;;;;;;;;;;;;10457734;28;19971;-61
2022/12/08 10:50:08;;;;;;;;;;;;;;;;;;10457021;28;19925;-61
2022/12/08 10:55:11;;;;;;;;;;;;;;;;;;10456858;28;19924;-61
2022/12/08 11:00:13;;;;;;;;;;;;;;;;;;10456419;28;19925;-61
2022/12/08 11:05:15;;;;;;;;;;;;;;;;;;10456683;28;19925;-61
2022/12/08 11:10:17;;;;;;;;;;;;;;;;;;10457228;28;19928;-61
2022/12/08 11:15:19;;;;;;;;;;;;;;;;;;10455883;28;19979;-61
2022/12/08 11:20:22;;;;;;;;;;;;;;;;;;10458485;28;19931;-61
2022/12/08 11:25:24;;;;;;;;;;;;;;;;;;10464631;28;19931;-61
2022/12/08 11:30:26;;;;;;;;;;;;;;;;;;10464998;28;19929;-61
2022/12/08 11:35:28;;;;;;;;;;;;;;;;;;10463459;28;20395;-61
2022/12/08 11:40:30;;;;;;;;;;;;;;;;;;10461553;28;20375;-61
2022/12/08 11:45:32;;;;;;;;;;;;;;;;;;10463706;28;20311;-61
2022/12/08 11:50:34;;;;;;;;;;;;;;;;;;10464456;28;19925;-61
2022/12/08 11:55:36;;;;;;;;;;;;;;;;;;10463268;28;19928;-61
2022/12/08 12:00:41;;;;;;;;;;;;;;;;;;10463949;28;19925;-61
2022/12/08 12:05:43;;;;;;;;;;;;;;;;;;10463079;28;20368;-61
2022/12/08 12:11:05;;;;;;;;;;;;;;;;;;10462812;28;20321;-59
2022/12/08 12:16:07;;;;;;;;;;;;;;;;;;10463293;28;19924;-59
2022/12/08 12:21:10;;;;;;;;;;;;;;;;;;10461694;28;19928;-59
2022/12/08 12:26:12;;;;;;;;;;;;;;;;;;10462213;28;19925;-59
2022/12/08 12:31:14;;;;;;;;;;;;;;;;;;10461010;28;19925;-59
2022/12/08 12:36:16;;;;;;;;;;;;;;;;;;10505030;22;19931;-64
2022/12/08 12:41:18;;;;;;;;;;;;;;;;;;10500841;28;20298;-64
2022/12/08 12:46:26;;;;;;;;;;;;;;;;;;10503042;28;20290;-64
2022/12/08 12:51:28;;;;;;;;;;;;;;;;;;10502847;28;19924;-64
2022/12/08 12:56:30;;;;;;;;;;;;;;;;;;10500937;28;19928;-64
2022/12/08 13:01:32;;;;;;;;;;;;;;;;;;10502978;28;19933;-64
2022/12/08 13:06:34;;;;;;;;;;;;;;;;;;10502771;28;19929;-64
2022/12/08 13:11:36;;;;;;;;;;;;;;;;;;10501803;28;19951;-64
2022/12/08 13:16:40;;;;;;;;;;;;;;;;;;10501622;28;19958;-64
2022/12/08 13:21:42;;;;;;;;;;;;;;;;;;10502147;28;19924;-64
2022/12/08 13:26:44;;;;;;;;;;;;;;;;;;10500370;28;19987;-64
2022/12/08 13:31:46;;;;;;;;;;;;;;;;;;10501042;28;19924;-64
2022/12/08 13:36:52;;;;;;;;;;;;;;;;;;10500102;28;19925;-64
2022/12/08 13:41:54;;;;;;;;;;;;;;;;;;10483585;28;19974;-64
2022/12/08 13:46:56;;;;;;;;;;;;;;;;;;10499480;28;19925;-64
2022/12/08 13:52:18;;;;;;;;;;;;;;;;;;10499588;28;19975;-64
2022/12/08 13:57:40;;;;;;;;;;;;;;;;;;10498730;28;19929;-64
2022/12/08 14:02:45;;;;;;;;;;;;;;;;;;10500481;28;19924;-64
2022/12/08 14:07:49;;;;;;;;;;;;;;;;;;10500196;28;19929;-65
2022/12/08 14:12:51;;;;;;;;;;;;;;;;;;10498288;28;19931;-64
2022/12/08 14:17:53;;;;;;;;;;;;;;;;;;10499335;28;19924;-64
2022/12/08 14:22:55;;;;;;;;;;;;;;;;;;10499746;28;19935;-64
2022/12/08 14:27:58;;;;;;;;;;;;;;;;;;10496429;28;19928;-64
2022/12/08 14:33:00;;;;;;;;;;;;;;;;;;10499156;28;19928;-64
2022/12/08 14:38:02;;;;;;;;;;;;;;;;;;10499410;28;19924;-65
2022/12/08 14:43:04;;;;;;;;;;;;;;;;;;10498415;28;19925;-64
2022/12/08 14:48:06;;;;;;;;;;;;;;;;;;10499160;28;19925;-64
2022/12/08 14:53:09;;;;;;;;;;;;;;;;;;10498118;28;19931;-64
2022/12/08 14:58:11;;;;;;;;;;;;;;;;;;10496083;28;19924;-64
2022/12/08 15:03:17;;;;;;;;;;;;;;;;;;10456794;28;19924;-64
2022/12/08 15:08:19;;;;;;;;;;;;;;;;;;10484450;28;19928;-65
2022/12/08 15:13:21;;;;;;;;;;;;;;;;;;10498157;28;20015;-64
2022/12/08 15:18:23;;;;;;;;;;;;;;;;;;10496766;28;19925;-65
2022/12/08 15:23:26;;;;;;;;;;;;;;;;;;10498460;28;19974;-64
2022/12/08 15:28:28;;;;;;;;;;;;;;;;;;10498349;28;19925;-64
2022/12/08 15:33:31;;;;;;;;;;;;;;;;;;10495322;28;20306;-64
2022/12/08 15:38:33;;;;;;;;;;;;;;;;;;10497042;28;19925;-66
2022/12/08 15:43:35;;;;;;;;;;;;;;;;;;10498116;28;19924;-66
2022/12/08 15:48:37;;;;;;;;;;;;;;;;;;10497334;28;20367;-66
2022/12/08 15:53:39;;;;;;;;;;;;;;;;;;10496095;28;20005;-66
2022/12/08 15:58:41;;;;;;;;;;;;;;;;;;10497147;28;19931;-66
2022/12/08 16:04:00;;;;;;;;;;;;;;;;;;10496787;28;19928;-66
2022/12/08 16:09:22;;;;;;;;;;;;;;;;;;10501324;28;19972;-66
2022/12/08 16:14:24;;;;;;;;;;;;;;;;;;10504165;28;20379;-66
2022/12/08 16:19:46;;;;;;;;;;;;;;;;;;10503016;28;20083;-66
2022/12/08 16:24:48;;;;;;;;;;;;;;;;;;10504552;28;19925;-66
2022/12/08 16:29:50;;;;;;;;;;;;;;;;;;10504336;28;19974;-66
2022/12/08 16:34:53;;;;;;;;;;;;;;;;;;10501595;28;19924;-66
2022/12/08 16:39:55;;;;;;;;;;;;;;;;;;10501560;28;19924;-66
2022/12/08 16:44:57;;;;;;;;;;;;;;;;;;10501820;28;19978;-66
2022/12/08 16:50:00;;;;;;;;;;;;;;;;;;10501085;28;20411;-66
2022/12/08 16:55:02;;;;;;;;;;;;;;;;;;10502416;28;19924;-66
2022/12/08 17:00:04;;;;;;;;;;;;;;;;;;10501790;28;19925;-66
2022/12/08 17:05:07;;;;;;;;;;;;;;;;;;10502395;28;19963;-66
2022/12/08 17:10:09;;;;;;;;;;;;;;;;;;10501951;28;19924;-66
2022/12/08 17:15:11;;;;;;;;;;;;;;;;;;10500768;28;20291;-66
2022/12/08 17:20:13;;;;;;;;;;;;;;;;;;10501238;28;19924;-66
2022/12/08 17:25:15;;;;;;;;;;;;;;;;;;10501544;28;19931;-66
2022/12/08 17:30:18;;;;;;;;;;;;;;;;;;10501856;28;19939;-66
2022/12/08 17:35:20;;;;;;;;;;;;;;;;;;10499621;28;19932;-66
2022/12/08 17:40:22;;;;;;;;;;;;;;;;;;10501422;28;19935;-66
2022/12/08 17:45:28;;;;;;;;;;;;;;;;;;10500154;28;19925;-66
2022/12/08 17:50:31;;;;;;;;;;;;;;;;;;10501010;28;19968;-66
2022/12/08 17:55:33;;;;;;;;;;;;;;;;;;10499722;28;19925;-66
2022/12/08 18:00:35;;;;;;;;;;;;;;;;;;10499942;28;19932;-66
2022/12/08 18:05:37;;;;;;;;;;;;;;;;;;10497858;28;20287;-66
2022/12/08 18:10:40;;;;;;;;;;;;;;;;;;10500272;28;19935;-66
2022/12/08 18:15:42;;;;;;;;;;;;;;;;;;10498003;28;19928;-66
2022/12/08 18:20:45;;;;;;;;;;;;;;;;;;10499920;28;19924;-66
2022/12/08 18:25:47;;;;;;;;;;;;;;;;;;10481393;28;19924;-66
2022/12/08 18:30:49;;;;;;;;;;;;;;;;;;10498000;28;19924;-66
2022/12/08 18:35:51;;;;;;;;;;;;;;;;;;10498881;28;19928;-66
2022/12/08 18:40:53;;;;;;;;;;;;;;;;;;10498830;28;20260;-66
2022/12/08 18:45:56;;;;;;;;;;;;;;;;;;10497854;28;19924;-66
2022/12/08 18:50:58;;;;;;;;;;;;;;;;;;10498512;28;20287;-66
2022/12/08 18:56:00;;;;;;;;;;;;;;;;;;10498388;28;19978;-66
2022/12/08 19:01:02;;;;;;;;;;;;;;;;;;10497475;28;20334;-66
2022/12/08 19:06:04;;;;;;;;;;;;;;;;;;10498172;28;19925;-66
2022/12/08 19:11:06;;;;;;;;;;;;;;;;;;10496591;28;19924;-66
2022/12/08 19:16:08;;;;;;;;;;;;;;;;;;10498631;28;19971;-66
2022/12/08 19:21:11;;;;;;;;;;;;;;;;;;10498502;28;19928;-66
2022/12/08 19:26:13;;;;;;;;;;;;;;;;;;10497438;28;19928;-66
2022/12/08 19:31:15;;;;;;;;;;;;;;;;;;10497577;28;19925;-66
2022/12/08 19:36:17;;;;;;;;;;;;;;;;;;10497268;28;20325;-66
2022/12/08 19:46:40;;;;;;;;;;;;;;;;;;10505383;28;19982;-66
2022/12/08 19:51:42;;;;;;;;;;;;;;;;;;10505000;28;19998;-66
2022/12/08 19:56:44;;;;;;;;;;;;;;;;;;10504539;28;19924;-66
2022/12/08 20:01:50;;;;;;;;;;;;;;;;;;10505423;28;19928;-66
2022/12/08 20:06:52;;;;;;;;;;;;;;;;;;10504645;28;19924;-66
2022/12/08 20:11:54;;;;;;;;;;;;;;;;;;10503835;28;19924;-66
2022/12/08 20:16:56;;;;;;;;;;;;;;;;;;10505123;28;19931;-66
2022/12/08 20:21:59;;;;;;;;;;;;;;;;;;10504032;28;19924;-66
2022/12/08 20:27:01;;;;;;;;;;;;;;;;;;10503487;28;19936;-66
2022/12/08 20:32:03;;;;;;;;;;;;;;;;;;10503577;28;20331;-66
2022/12/08 20:37:05;;;;;;;;;;;;;;;;;;10503295;28;20367;-66
2022/12/08 20:42:07;;;;;;;;;;;;;;;;;;10501269;28;19928;-66
2022/12/08 20:47:09;;;;;;;;;;;;;;;;;;10503734;28;19928;-66
2022/12/08 20:52:12;;;;;;;;;;;;;;;;;;10502377;28;19924;-66
2022/12/08 20:57:14;;;;;;;;;;;;;;;;;;10502429;28;19924;-66
2022/12/08 21:02:16;;;;;;;;;;;;;;;;;;10503101;28;19925;-66
2022/12/08 21:07:18;;;;;;;;;;;;;;;;;;10502273;28;20441;-66
2022/12/08 21:12:20;;;;;;;;;;;;;;;;;;10501619;28;19929;-66
2022/12/08 21:17:22;;;;;;;;;;;;;;;;;;10502499;28;19932;-66
2022/12/08 21:22:26;;;;;;;;;;;;;;;;;;10499443;28;20404;-66
2022/12/08 21:27:29;;;;;;;;;;;;;;;;;;10502016;28;19964;-66
2022/12/08 21:32:31;;;;;;;;;;;;;;;;;;10501143;28;19997;-66
2022/12/08 21:37:33;;;;;;;;;;;;;;;;;;10499948;28;19925;-66
2022/12/08 21:42:42;;;;;;;;;;;;;;;;;;10501327;28;19974;-66
2022/12/08 21:47:44;;;;;;;;;;;;;;;;;;10501221;28;19967;-66
2022/12/08 21:52:46;;;;;;;;;;;;;;;;;;10499322;28;19935;-66
2022/12/08 21:57:48;;;;;;;;;;;;;;;;;;10500897;28;19931;-66
2022/12/08 22:02:51;;;;;;;;;;;;;;;;;;10502491;28;19929;-66
2022/12/08 22:07:53;;;;;;;;;;;;;;;;;;10499518;28;19924;-66
2022/12/08 22:12:55;;;;;;;;;;;;;;;;;;10498801;28;19925;-66
2022/12/08 22:17:57;;;;;;;;;;;;;;;;;;10499426;28;20439;-66
2022/12/08 22:22:59;;;;;;;;;;;;;;;;;;10499922;28;19925;-66
2022/12/08 22:28:02;;;;;;;;;;;;;;;;;;10498354;28;19986;-66
2022/12/08 22:33:04;;;;;;;;;;;;;;;;;;10497835;28;19924;-66
2022/12/08 22:38:06;;;;;;;;;;;;;;;;;;10498742;28;19924;-66
2022/12/08 22:43:08;;;;;;;;;;;;;;;;;;10499348;28;19924;-66
2022/12/08 22:48:10;;;;;;;;;;;;;;;;;;10498561;28;19978;-66
2022/12/08 22:53:12;;;;;;;;;;;;;;;;;;10498076;28;19978;-67
2022/12/08 22:58:14;;;;;;;;;;;;;;;;;;10497919;28;19924;-66
2022/12/08 23:03:17;;;;;;;;;;;;;;;;;;10497935;28;19977;-66
2022/12/08 23:08:19;;;;;;;;;;;;;;;;;;10498196;28;20337;-66
2022/12/08 23:13:21;;;;;;;;;;;;;;;;;;10497182;28;19986;-66
2022/12/08 23:18:23;;;;;;;;;;;;;;;;;;10503198;28;19925;-66
2022/12/08 23:23:25;;;;;;;;;;;;;;;;;;10506344;28;19974;-66
2022/12/08 23:28:27;;;;;;;;;;;;;;;;;;10506169;28;19974;-66
2022/12/08 23:33:30;;;;;;;;;;;;;;;;;;10504804;28;20030;-63
2022/12/08 23:38:32;;;;;;;;;;;;;;;;;;10506579;28;19928;-64
2022/12/08 23:43:34;;;;;;;;;;;;;;;;;;10505509;28;19928;-64
2022/12/08 23:48:36;;;;;;;;;;;;;;;;;;10504725;28;19932;-64
2022/12/08 23:53:39;;;;;;;;;;;;;;;;;;10505638;28;19974;-64
2022/12/08 23:58:41;;;;;;;;;;;;;;;;;;10504915;28;20379;-64
